Latest Weather Observations for Kalumburu

IDD60801

Issued at 10:31 pm CST Friday 31 July 2015 (issued every 30 minutes, with the page automatically refreshed every 10 minutes)

About weather observations | Map of weather stations | Latest weather observations for NT | Other Formats
Station Details ID: 001019 Name: KALUMBURU Lat: -14.30 Lon: 126.65 Height: 23.0 m
Data from the previous 72 hours. | See also: Recent months at Kalumburu
Date/Time
CST
Temp
°C
App
Temp
°C
Dew
Point
Rel
Hum
%
Delta-T
°C
Wind Press
QNH
hPa
Press
MSL
hPa
Rain
since 9 am
mm
Dir
 
Spd
km/h
Gust
km/h
Spd
kts
Gust
kts
31/10:30pm 18.9 17.7 9.4 54 5.0 WSW 6 6 3 3 1015.2 1015.1 0.0
31/10:00pm 21.8 20.6 9.7 46 6.5 NW 6 7 3 4 1015.0 1014.9 0.0
31/09:30pm 22.6 22.3 8.7 41 7.4 CALM 0 0 0 0 1014.9 1014.8 0.0
31/09:00pm 23.2 21.8 7.3 36 8.3 NNW 4 7 2 4 1014.8 1014.7 0.0
31/08:30pm 24.8 22.9 6.5 31 9.5 NW 6 7 3 4 1014.5 1014.4 0.0
31/08:00pm 26.8 23.8 6.2 27 10.7 NE 11 24 6 13 1013.9 1013.8 0.0
31/07:30pm 27.5 24.2 6.3 26 11.1 ENE 13 24 7 13 1013.4 1013.3 0.0
31/07:00pm 28.2 24.9 6.3 25 11.5 ENE 13 24 7 13 1012.9 1012.8 0.0
31/06:30pm 29.9 26.7 5.2 21 12.9 ENE 11 19 6 10 1012.5 1012.4 0.0
31/06:00pm 30.9 27.4 5.3 20 13.5 ENE 13 20 7 11 1012.4 1012.3 0.0
31/05:30pm 31.6 28.0 5.2 19 13.9 E 13 20 7 11 1012.2 1012.1 0.0
31/05:00pm 32.2 28.8 4.1 17 14.6 E 11 22 6 12 1012.1 1012.0 0.0
31/04:30pm 32.5 28.8 4.3 17 14.7 ENE 13 22 7 12 1012.1 1012.0 0.0
31/04:00pm 32.4 28.7 4.2 17 14.7 ENE 13 22 7 12 1012.3 1012.2 0.0
31/03:30pm 33.0 29.3 4.7 17 14.9 ESE 13 20 7 11 1012.5 1012.4 0.0
31/03:00pm 32.9 29.1 3.8 16 15.1 SE 13 28 7 15 1012.9 1012.8 0.0
31/02:30pm 32.9 29.1 3.8 16 15.1 NE 13 24 7 13 1013.4 1013.3 0.0
31/02:00pm 32.3 27.6 3.3 16 14.9 ESE 17 26 9 14 1014.0 1013.9 0.0
31/01:30pm 32.0 27.4 3.9 17 14.5 E 17 28 9 15 1014.5 1014.4 0.0
31/01:00pm 32.0 28.0 4.7 18 14.3 E 15 32 8 17 1015.1 1015.0 0.0
31/12:30pm 31.2 26.7 4.1 18 14.0 ESE 17 32 9 17 1015.6 1015.5 0.0
31/12:00pm 31.7 27.4 5.3 19 13.9 E 17 28 9 15 1016.1 1016.0 0.0
31/11:30am 30.9 26.5 4.6 19 13.7 E 17 33 9 18 1016.5 1016.4 0.0
31/11:00am 30.3 26.1 5.6 21 13.0 ESE 17 30 9 16 1016.6 1016.5 0.0
31/10:30am 29.1 24.8 3.1 19 13.0 ESE 15 24 8 13 1016.9 1016.8 0.0
31/10:00am 28.4 24.3 4.6 22 12.2 ESE 15 22 8 12 1017.0 1016.9 0.0
31/09:30am 26.8 23.9 4.6 24 11.2 SE 9 17 5 9 1016.9 1016.8 0.0
31/09:00am 22.8 21.7 7.0 36 8.1 WSW 2 9 1 5 1016.7 1016.6 0.0
31/08:30am 18.8 19.1 10.9 60 4.3 CALM 0 0 0 0 1016.5 1016.4 0.0
31/08:00am 16.0 16.0 9.9 67 3.2 CALM 0 6 0 3 1016.3 1016.2 0.0
31/07:30am 15.4 14.0 9.5 68 3.0 SSW 7 11 4 6 1015.9 1015.8 0.0
31/07:00am 16.0 14.8 10.3 69 3.0 SSW 7 13 4 7 1015.7 1015.6 0.0
31/06:30am 16.7 15.5 10.3 66 3.4 S 7 13 4 7 1015.4 1015.3 0.0
31/06:00am 15.3 14.0 10.1 71 2.7 S 7 11 4 6 1015.3 1015.2 0.0
31/05:30am 14.1 12.6 9.1 72 2.5 S 7 11 4 6 1015.3 1015.2 0.0
31/05:00am 14.1 13.0 10.5 79 1.9 SSW 7 11 4 6 1015.4 1015.3 0.0
31/04:30am 13.5 12.3 9.6 77 2.0 SSW 6 9 3 5 1015.4 1015.3 0.0
31/04:00am 14.0 12.9 9.8 76 2.2 S 6 7 3 4 1015.5 1015.4 0.0
31/03:30am 14.7 13.5 9.5 71 2.7 SSW 6 7 3 4 1015.6 1015.5 0.0
31/03:00am 15.5 14.3 9.6 68 3.1 SSW 6 7 3 4 1015.9 1015.8 0.0
31/02:30am 16.7 15.4 9.1 61 3.9 SW 6 9 3 5 1016.1 1016.0 0.0
31/02:00am 17.7 17.6 9.6 59 4.3 CALM 0 0 0 0 1016.2 1016.1 0.0
31/01:30am 18.2 18.2 9.8 58 4.4 CALM 0 4 0 2 1016.4 1016.3 0.0
31/01:00am 19.2 19.3 10.2 56 4.8 CALM 0 0 0 0 1016.6 1016.5 0.0
31/12:30am 20.0 20.0 9.9 52 5.4 CALM 0 0 0 0 1016.7 1016.6 0.0
31/12:00am 20.0 19.4 9.0 49 5.8 ESE 2 6 1 3 1016.7 1016.6 0.0
 
Date/Time
CST
Temp
°C
App
Temp
°C
Dew
Point
Rel
Hum
%
Delta-T
°C
Wind Press
QNH
hPa
Press
MSL
hPa
Rain
since 9 am
mm
Dir
 
Spd
km/h
Gust
km/h
Spd
kts
Gust
kts
30/11:30pm 20.7 19.3 9.0 47 6.2 SE 6 7 3 4 1016.8 1016.7 0.0
30/11:00pm 21.2 19.9 9.1 46 6.4 SE 6 7 3 4 1016.7 1016.6 0.0
30/10:30pm 22.6 21.1 8.3 40 7.5 SE 6 7 3 4 1016.7 1016.6 0.0
30/10:00pm 25.5 23.5 8.5 34 9.2 ESE 9 13 5 7 1016.6 1016.5 0.0
30/09:30pm 24.6 23.1 9.0 37 8.4 SE 7 9 4 5 1016.3 1016.2 0.0
30/09:00pm 24.9 23.2 8.4 35 8.8 SE 7 11 4 6 1015.9 1015.8 0.0
30/08:30pm 26.8 25.1 8.3 31 10.0 E 7 11 4 6 1015.4 1015.3 0.0
30/08:00pm 27.8 26.0 8.1 29 10.7 ENE 7 11 4 6 1015.0 1014.9 0.0
30/07:30pm 28.5 26.8 8.2 28 11.1 ENE 7 15 4 8 1014.5 1014.4 0.0
30/07:00pm 29.3 26.8 8.4 27 11.5 ENE 11 15 6 8 1014.3 1014.2 0.0
30/06:30pm 30.6 28.0 7.7 24 12.5 E 11 17 6 9 1014.0 1013.9 0.0
30/06:00pm 31.5 28.5 7.9 23 13.0 E 13 26 7 14 1013.9 1013.8 0.0
30/05:30pm 32.0 29.0 7.6 22 13.4 ENE 13 22 7 12 1013.8 1013.7 0.0
30/05:00pm 32.3 29.2 7.2 21 13.7 ESE 13 24 7 13 1013.6 1013.5 0.0
30/04:30pm 33.0 29.6 7.8 21 14.0 E 15 30 8 16 1013.6 1013.5 0.0
30/04:00pm 33.2 30.6 7.9 21 14.1 ESE 11 17 6 9 1013.8 1013.7 0.0
30/03:30pm 33.1 29.8 7.9 21 14.0 ENE 15 30 8 16 1014.2 1014.1 0.0
30/03:00pm 33.0 29.9 7.1 20 14.2 E 13 24 7 13 1014.7 1014.6 0.0
30/02:30pm 32.7 28.9 7.5 21 13.9 E 17 28 9 15 1015.2 1015.1 0.0
30/02:00pm 32.7 28.7 6.8 20 14.1 E 17 28 9 15 1015.8 1015.7 0.0
30/01:30pm 32.4 28.9 7.3 21 13.7 ESE 15 24 8 13 1016.2 1016.1 0.0
30/01:00pm 32.8 28.9 6.9 20 14.1 E 17 28 9 15 1016.8 1016.7 0.0
30/12:30pm 31.7 27.0 5.3 19 13.9 E 19 32 10 17 1017.4 1017.3 0.0
30/12:00pm 31.5 26.9 5.8 20 13.7 E 19 30 10 16 1017.8 1017.7 0.0
30/11:30am 31.2 26.4 5.6 20 13.5 E 20 33 11 18 1018.0 1017.9 0.0
30/11:00am 30.1 24.5 5.4 21 13.0 ESE 24 41 13 22 1018.3 1018.2 0.0
30/10:30am 29.2 24.5 5.3 22 12.4 ESE 19 32 10 17 1018.4 1018.3 0.0
30/10:00am 28.1 23.7 5.0 23 11.9 ESE 17 28 9 15 1018.6 1018.5 0.0
30/09:30am 27.0 23.2 4.1 23 11.5 SE 13 24 7 13 1018.4 1018.3 0.0
30/09:00am 25.4 21.5 3.4 24 10.8 SE 13 22 7 12 1017.9 1017.8 0.0
30/08:30am 21.0 20.1 9.3 47 6.2 SW 4 9 2 5 1017.8 1017.7 0.0
30/08:00am 16.6 15.3 7.8 56 4.4 WNW 4 9 2 5 1017.5 1017.4 0.0
30/07:30am 15.2 14.5 7.0 58 4.0 CALM 0 0 0 0 1017.2 1017.1 0.0
30/07:00am 15.4 13.5 6.9 57 4.2 W 6 7 3 4 1016.9 1016.8 0.0
30/06:30am 16.0 14.2 7.0 55 4.4 SSW 6 11 3 6 1016.7 1016.6 0.0
30/06:00am 16.9 14.9 7.0 52 4.9 SSW 7 11 4 6 1016.5 1016.4 0.0
30/05:30am 16.1 14.2 7.6 57 4.2 SSW 7 11 4 6 1016.4 1016.3 0.0
30/05:00am 15.2 13.5 7.5 60 3.8 S 6 9 3 5 1016.4 1016.3 0.0
30/04:30am 16.4 14.4 7.1 54 4.6 SSW 7 9 4 5 1016.4 1016.3 0.0
30/04:00am 16.5 14.7 7.2 54 4.6 S 6 7 3 4 1016.4 1016.3 0.0
30/03:30am 16.0 15.5 7.7 58 4.2 CALM 0 6 0 3 1016.6 1016.5 0.0
30/03:00am 16.0 14.6 8.7 62 3.7 S 6 9 3 5 1016.8 1016.7 0.0
30/02:30am 17.1 16.1 8.8 58 4.3 SW 4 7 2 4 1017.0 1016.9 0.0
30/02:00am 17.5 17.0 7.8 53 4.9 CALM 0 6 0 3 1017.1 1017.0 0.0
30/01:30am 18.2 17.3 7.6 50 5.4 N 2 7 1 4 1017.4 1017.3 0.0
30/01:00am 18.8 18.3 7.9 49 5.6 CALM 0 0 0 0 1017.6 1017.5 0.0
30/12:30am 20.1 18.5 7.8 45 6.3 W 6 7 3 4 1017.5 1017.4 0.0
30/12:00am 21.6 20.8 6.7 38 7.6 CALM 0 6 0 3 1017.4 1017.3 0.0
 
Date/Time
CST
Temp
°C
App
Temp
°C
Dew
Point
Rel
Hum
%
Delta-T
°C
Wind Press
QNH
hPa
Press
MSL
hPa
Rain
since 9 am
mm
Dir
 
Spd
km/h
Gust
km/h
Spd
kts
Gust
kts
29/11:30pm 22.6 20.3 7.6 38 7.8 ESE 9 13 5 7 1017.5 1017.4 0.0
29/11:00pm 21.3 19.4 7.5 41 7.1 ESE 7 9 4 5 1017.6 1017.5 0.0
29/10:30pm 21.8 20.1 7.6 40 7.4 ESE 6 9 3 5 1017.5 1017.4 0.0
29/10:00pm 22.0 20.1 7.4 39 7.6 ESE 7 9 4 5 1017.2 1017.1 0.0
29/09:30pm 22.7 21.0 7.7 38 7.8 SE 6 9 3 5 1017.1 1017.0 0.0
29/09:00pm 22.5 20.7 7.9 39 7.7 ESE 7 9 4 5 1017.0 1016.9 0.0
29/08:30pm 23.7 22.1 7.8 36 8.4 ESE 6 7 3 4 1016.6 1016.5 0.0
29/08:00pm 25.2 23.2 6.9 31 9.6 E 7 11 4 6 1016.2 1016.1 0.0
29/07:30pm 27.1 24.9 6.0 26 11.0 E 7 9 4 5 1015.7 1015.6 0.0
29/07:00pm 28.7 26.0 5.5 23 12.1 E 9 20 5 11 1015.5 1015.4 0.0
29/06:30pm 30.0 26.8 5.3 21 12.9 E 11 20 6 11 1015.3 1015.2 0.0
29/06:00pm 31.1 27.6 5.5 20 13.5 E 13 22 7 12 1015.1 1015.0 0.0
29/05:30pm 31.5 27.9 5.1 19 13.9 E 13 22 7 12 1015.0 1014.9 0.0
29/05:00pm 32.1 28.6 5.6 19 14.1 ENE 13 24 7 13 1014.9 1014.8 0.0
29/04:30pm 32.6 29.4 5.2 18 14.5 ESE 11 19 6 10 1015.0 1014.9 0.0
29/04:00pm 32.2 28.4 5.7 19 14.1 E 15 24 8 13 1015.1 1015.0 0.0
29/03:30pm 32.4 28.8 5.0 18 14.5 SE 13 26 7 14 1015.2 1015.1 0.0
29/03:00pm 32.5 28.0 4.3 17 14.7 E 17 28 9 15 1015.6 1015.5 0.0
29/02:30pm 32.0 27.4 3.9 17 14.5 E 17 26 9 14 1016.0 1015.9 0.0
29/02:00pm 32.4 28.3 4.2 17 14.7 ESE 15 26 8 14 1016.5 1016.4 0.0
29/01:30pm 32.4 29.2 5.0 18 14.4 E 11 20 6 11 1017.0 1016.9 0.0
29/01:00pm 31.3 26.6 3.4 17 14.2 SE 17 30 9 16 1017.6 1017.5 0.0
29/12:30pm 30.8 25.8 3.8 18 13.8 ESE 19 32 10 17 1018.2 1018.1 0.0
29/12:00pm 29.8 24.7 2.9 18 13.5 ESE 19 32 10 17 1018.7 1018.6 0.0
29/11:30am 29.4 24.6 2.6 18 13.3 ESE 17 32 9 17 1019.2 1019.1 0.0
29/11:00am 28.7 23.8 2.1 18 13.1 SE 17 30 9 16 1019.4 1019.3 0.0
29/10:30am 27.4 21.9 1.8 19 12.4 SE 20 37 11 20 1019.6 1019.5 0.0
29/10:00am 26.9 22.1 2.7 21 11.9 SE 17 28 9 15 1019.7 1019.6 0.0
29/09:30am 26.0 22.0 2.7 22 11.3 SSE 13 24 7 13 1019.6 1019.5 0.0
29/09:00am 24.9 20.6 3.0 24 10.7 SSE 15 24 8 13 1019.3 1019.2 0.0
29/08:30am 23.7 20.5 3.1 26 9.9 S 9 15 5 8 1019.1 1019.0 0.0
29/08:00am 23.0 19.4 3.0 27 9.6 S 11 17 6 9 1018.7 1018.6 0.0
29/07:30am 22.3 19.1 2.9 28 9.2 S 9 15 5 8 1018.3 1018.2 0.0
29/07:00am 22.3 19.5 2.9 28 9.2 SE 7 13 4 7 1018.0 1017.9 0.0
29/06:30am 22.5 19.3 3.1 28 9.3 ESE 9 19 5 10 1017.5 1017.4 0.0
29/06:00am 22.2 19.0 3.3 29 9.1 ESE 9 13 5 7 1017.4 1017.3 0.0
29/05:30am 22.2 19.4 3.3 29 9.1 SE 7 13 4 7 1017.4 1017.3 0.0
29/05:00am 22.8 19.8 3.9 29 9.2 ESE 9 17 5 9 1017.3 1017.2 0.0
29/04:30am 23.3 20.0 4.3 29 9.3 ESE 11 19 6 10 1017.2 1017.1 0.0
29/04:00am 23.4 20.1 4.4 29 9.4 ESE 11 17 6 9 1017.2 1017.1 0.0
29/03:30am 23.5 20.6 4.5 29 9.4 ESE 9 17 5 9 1017.4 1017.3 0.0
29/03:00am 23.4 20.8 4.4 29 9.4 ESE 7 13 4 7 1017.6 1017.5 0.0
29/02:30am 24.0 21.1 4.4 28 9.7 ESE 9 15 5 8 1017.9 1017.8 0.0
29/02:00am 24.0 21.1 4.9 29 9.6 ESE 9 15 5 8 1018.0 1017.9 0.0
29/01:30am 24.1 21.0 5.5 30 9.4 ESE 11 17 6 9 1018.2 1018.1 0.0
29/01:00am 22.9 20.2 5.8 33 8.6 ESE 9 11 5 6 1018.3 1018.2 0.0
29/12:30am 23.1 20.8 5.5 32 8.8 ESE 7 13 4 7 1018.5 1018.4 0.0

Other Formats:

Comma delimited format used in spreadsheet applications
http://www.bom.gov.au/fwo/IDD60801/IDD60801.94100.axf

JavaScript Object Notation format (JSON) in row-major order
http://www.bom.gov.au/fwo/IDD60801/IDD60801.94100.json